KAX55 KJWN-KSGF
Flight info
| Callsign | KAX55 |
|---|---|
| Flight time | 1h 5m |
| Altitude | 28000 |
| Route | PARDN HODJS |
| Aircraft | C25C/M-SDE2E3FGHRWXY/LB1 |
Departure
| Time | 2026-05-05 14:30 |
|---|---|
| Airport | John C Tune Airport (KJWN) |
Arrival
| Time | 2026-05-05 15:35 |
|---|---|
| Airport | Springfield Branson National Airport (KSGF) |
| Time | Latitude | Longitude | Altitude | Speed | Heading |
|---|---|---|---|---|---|
| 2026-05-05 14:18 | 36.17864 | -86.88391 | 480 ft | 0 kts | 47° |
| 2026-05-05 14:24 | 36.17865 | -86.88390 | 504 ft | 1 kts | 37° |
| 2026-05-05 14:24 | 36.17874 | -86.88399 | 504 ft | 4 kts | 315° |
| 2026-05-05 14:24 | 36.17877 | -86.88404 | 504 ft | 0 kts | 314° |
| 2026-05-05 14:26 | 36.17898 | -86.88429 | 504 ft | 10 kts | 318° |
| 2026-05-05 14:26 | 36.17975 | -86.88510 | 504 ft | 16 kts | 317° |
| 2026-05-05 14:26 | 36.18024 | -86.88589 | 504 ft | 9 kts | 311° |
| 2026-05-05 14:27 | 36.18084 | -86.88582 | 504 ft | 12 kts | 14° |
| 2026-05-05 14:27 | 36.18197 | -86.88546 | 504 ft | 22 kts | 15° |
| 2026-05-05 14:27 | 36.18322 | -86.88506 | 504 ft | 18 kts | 14° |
| 2026-05-05 14:27 | 36.18442 | -86.88467 | 504 ft | 17 kts | 14° |
| 2026-05-05 14:28 | 36.18554 | -86.88430 | 504 ft | 17 kts | 14° |
| 2026-05-05 14:28 | 36.18664 | -86.88394 | 504 ft | 16 kts | 13° |
| 2026-05-05 14:28 | 36.18767 | -86.88361 | 504 ft | 15 kts | 15° |
| 2026-05-05 14:28 | 36.18885 | -86.88323 | 504 ft | 19 kts | 14° |
| 2026-05-05 14:29 | 36.19019 | -86.88278 | 504 ft | 15 kts | 13° |
| 2026-05-05 14:29 | 36.19077 | -86.88288 | 504 ft | 6 kts | 281° |
| 2026-05-05 14:29 | 36.19079 | -86.88300 | 505 ft | 0 kts | 283° |
| 2026-05-05 14:29 | 36.19087 | -86.88330 | 505 ft | 13 kts | 288° |
| 2026-05-05 14:30 | 36.19011 | -86.88421 | 506 ft | 45 kts | 193° |
| 2026-05-05 14:30 | 36.18397 | -86.88628 | 557 ft | 131 kts | 198° |
| 2026-05-05 14:30 | 36.17381 | -86.88995 | 1150 ft | 164 kts | 196° |
| 2026-05-05 14:30 | 36.16420 | -86.89803 | 2191 ft | 182 kts | 230° |
| 2026-05-05 14:31 | 36.16032 | -86.91326 | 3365 ft | 199 kts | 263° |
| 2026-05-05 14:31 | 36.16173 | -86.93119 | 4452 ft | 228 kts | 280° |
| 2026-05-05 14:31 | 36.16793 | -86.94999 | 5744 ft | 236 kts | 292° |
| 2026-05-05 14:31 | 36.17512 | -86.96923 | 6406 ft | 263 kts | 287° |
| 2026-05-05 14:32 | 36.17925 | -86.99129 | 7459 ft | 250 kts | 275° |
| 2026-05-05 14:32 | 36.18289 | -87.01231 | 8502 ft | 261 kts | 283° |
| 2026-05-05 14:32 | 36.18920 | -87.03391 | 9226 ft | 273 kts | 287° |
| 2026-05-05 14:32 | 36.19583 | -87.05601 | 10163 ft | 275 kts | 285° |
| 2026-05-05 14:33 | 36.20189 | -87.07856 | 11060 ft | 276 kts | 284° |
| 2026-05-05 14:33 | 36.20789 | -87.10118 | 11931 ft | 278 kts | 284° |
| 2026-05-05 14:33 | 36.21417 | -87.12470 | 12293 ft | 301 kts | 284° |
| 2026-05-05 14:33 | 36.22087 | -87.14926 | 13108 ft | 302 kts | 284° |
| 2026-05-05 14:34 | 36.22764 | -87.17414 | 13901 ft | 306 kts | 284° |
| 2026-05-05 14:34 | 36.23445 | -87.19936 | 14368 ft | 318 kts | 284° |
| 2026-05-05 14:34 | 36.24146 | -87.22541 | 15115 ft | 318 kts | 285° |
| 2026-05-05 14:34 | 36.24849 | -87.25154 | 15801 ft | 321 kts | 284° |
| 2026-05-05 14:35 | 36.25563 | -87.27793 | 16498 ft | 323 kts | 285° |
| 2026-05-05 14:35 | 36.26275 | -87.30444 | 17167 ft | 326 kts | 285° |
| 2026-05-05 14:35 | 36.26994 | -87.33129 | 17867 ft | 329 kts | 285° |
| 2026-05-05 14:35 | 36.27720 | -87.35825 | 18524 ft | 331 kts | 285° |
| 2026-05-05 14:36 | 36.28447 | -87.38540 | 19180 ft | 331 kts | 285° |
| 2026-05-05 14:36 | 36.29165 | -87.41225 | 19827 ft | 332 kts | 285° |
| 2026-05-05 14:36 | 36.29893 | -87.43946 | 20486 ft | 333 kts | 285° |
| 2026-05-05 14:36 | 36.30628 | -87.46681 | 21155 ft | 334 kts | 285° |
| 2026-05-05 14:37 | 36.31322 | -87.49433 | 21804 ft | 334 kts | 281° |
| 2026-05-05 14:37 | 36.31507 | -87.52279 | 22456 ft | 332 kts | 268° |
| 2026-05-05 14:37 | 36.31431 | -87.54178 | 22871 ft | 333 kts | 266° |
| 2026-05-05 14:37 | 36.31290 | -87.57051 | 23511 ft | 334 kts | 266° |
| 2026-05-05 14:38 | 36.31131 | -87.59931 | 24026 ft | 336 kts | 266° |
| 2026-05-05 14:38 | 36.30983 | -87.62830 | 24524 ft | 337 kts | 267° |
| 2026-05-05 14:38 | 36.30846 | -87.65743 | 25020 ft | 339 kts | 267° |
| 2026-05-05 14:38 | 36.30698 | -87.68672 | 25507 ft | 341 kts | 268° |
| 2026-05-05 14:39 | 36.30549 | -87.71616 | 25971 ft | 343 kts | 268° |
| 2026-05-05 14:39 | 36.30397 | -87.74573 | 26419 ft | 344 kts | 268° |
| 2026-05-05 14:39 | 36.30248 | -87.77539 | 26833 ft | 346 kts | 268° |
| 2026-05-05 14:39 | 36.30094 | -87.80532 | 27237 ft | 348 kts | 268° |
| 2026-05-05 14:40 | 36.29940 | -87.83534 | 27622 ft | 350 kts | 268° |
| 2026-05-05 14:40 | 36.29783 | -87.86569 | 27871 ft | 355 kts | 268° |
| 2026-05-05 14:40 | 36.29626 | -87.89637 | 27925 ft | 360 kts | 268° |
| 2026-05-05 14:40 | 36.29460 | -87.92765 | 27932 ft | 365 kts | 268° |
| 2026-05-05 14:41 | 36.29295 | -87.95929 | 27934 ft | 370 kts | 268° |
| 2026-05-05 14:41 | 36.29125 | -87.99127 | 27938 ft | 374 kts | 268° |
| 2026-05-05 14:41 | 36.28958 | -88.02309 | 27939 ft | 377 kts | 268° |
| 2026-05-05 14:41 | 36.28784 | -88.05560 | 27941 ft | 379 kts | 268° |
| 2026-05-05 14:42 | 36.28607 | -88.08838 | 27937 ft | 381 kts | 268° |
| 2026-05-05 14:42 | 36.28431 | -88.12127 | 27938 ft | 383 kts | 268° |
| 2026-05-05 14:42 | 36.28253 | -88.15429 | 27937 ft | 385 kts | 268° |
| 2026-05-05 14:42 | 36.28108 | -88.18745 | 27935 ft | 386 kts | 270° |
| 2026-05-05 14:43 | 36.27976 | -88.22070 | 27942 ft | 386 kts | 269° |
| 2026-05-05 14:43 | 36.28166 | -88.25384 | 27939 ft | 386 kts | 279° |
| 2026-05-05 14:43 | 36.28813 | -88.28611 | 27940 ft | 387 kts | 285° |
| 2026-05-05 14:43 | 36.29605 | -88.31810 | 27945 ft | 388 kts | 287° |
| 2026-05-05 14:44 | 36.30419 | -88.35003 | 27944 ft | 389 kts | 285° |
| 2026-05-05 14:44 | 36.31058 | -88.38255 | 27942 ft | 388 kts | 282° |
| 2026-05-05 14:44 | 36.31645 | -88.41525 | 27943 ft | 389 kts | 282° |
| 2026-05-05 14:44 | 36.32294 | -88.44788 | 27942 ft | 389 kts | 284° |
| 2026-05-05 14:45 | 36.32985 | -88.48040 | 27942 ft | 389 kts | 283° |
| 2026-05-05 14:45 | 36.33640 | -88.51258 | 27939 ft | 389 kts | 283° |
| 2026-05-05 14:45 | 36.34281 | -88.54518 | 27938 ft | 389 kts | 283° |
| 2026-05-05 14:45 | 36.34930 | -88.57775 | 27931 ft | 389 kts | 283° |
| 2026-05-05 14:46 | 36.35586 | -88.61039 | 27930 ft | 389 kts | 283° |
| 2026-05-05 14:46 | 36.36242 | -88.64288 | 27927 ft | 389 kts | 283° |
| 2026-05-05 14:46 | 36.36894 | -88.67571 | 27918 ft | 390 kts | 283° |
| 2026-05-05 14:46 | 36.37543 | -88.70835 | 27888 ft | 390 kts | 283° |
| 2026-05-05 14:47 | 36.38196 | -88.74106 | 27886 ft | 390 kts | 283° |
| 2026-05-05 14:47 | 36.38837 | -88.77328 | 27882 ft | 390 kts | 283° |
| 2026-05-05 14:47 | 36.39487 | -88.80598 | 27875 ft | 390 kts | 283° |
| 2026-05-05 14:47 | 36.40128 | -88.83864 | 27871 ft | 389 kts | 282° |
| 2026-05-05 14:48 | 36.40765 | -88.87137 | 27867 ft | 389 kts | 283° |
| 2026-05-05 14:48 | 36.41430 | -88.90404 | 27863 ft | 389 kts | 283° |
| 2026-05-05 14:48 | 36.42090 | -88.93654 | 27861 ft | 389 kts | 282° |
| 2026-05-05 14:48 | 36.42708 | -88.96921 | 27857 ft | 389 kts | 282° |
| 2026-05-05 14:49 | 36.43344 | -89.00189 | 27862 ft | 388 kts | 283° |
| 2026-05-05 14:49 | 36.43990 | -89.03439 | 27860 ft | 389 kts | 283° |
| 2026-05-05 14:49 | 36.44634 | -89.06706 | 27861 ft | 389 kts | 282° |
| 2026-05-05 14:49 | 36.45271 | -89.09967 | 27861 ft | 389 kts | 282° |
| 2026-05-05 14:50 | 36.45898 | -89.13185 | 27863 ft | 388 kts | 282° |
| 2026-05-05 14:50 | 36.46533 | -89.16455 | 27861 ft | 389 kts | 282° |
| 2026-05-05 14:50 | 36.47175 | -89.19724 | 27861 ft | 389 kts | 282° |
| 2026-05-05 14:50 | 36.47808 | -89.22989 | 27859 ft | 389 kts | 282° |
| 2026-05-05 14:51 | 36.48444 | -89.26263 | 27865 ft | 389 kts | 282° |
| 2026-05-05 14:51 | 36.49078 | -89.29533 | 27858 ft | 390 kts | 282° |
| 2026-05-05 14:51 | 36.49713 | -89.32814 | 27863 ft | 390 kts | 282° |
| 2026-05-05 14:51 | 36.50348 | -89.36091 | 27867 ft | 390 kts | 282° |
| 2026-05-05 14:52 | 36.50964 | -89.39339 | 27863 ft | 391 kts | 282° |
| 2026-05-05 14:52 | 36.51610 | -89.42624 | 27857 ft | 392 kts | 282° |
| 2026-05-05 14:52 | 36.52249 | -89.45917 | 27854 ft | 392 kts | 281° |
| 2026-05-05 14:52 | 36.52874 | -89.49221 | 27856 ft | 393 kts | 281° |
| 2026-05-05 14:53 | 36.53504 | -89.52529 | 27855 ft | 394 kts | 281° |
| 2026-05-05 14:53 | 36.54145 | -89.55849 | 27859 ft | 394 kts | 281° |
| 2026-05-05 14:53 | 36.54780 | -89.59169 | 27863 ft | 395 kts | 281° |
| 2026-05-05 14:53 | 36.55415 | -89.62495 | 27863 ft | 396 kts | 281° |
| 2026-05-05 14:54 | 36.56050 | -89.65843 | 27867 ft | 396 kts | 281° |
| 2026-05-05 14:54 | 36.56678 | -89.69136 | 27866 ft | 397 kts | 281° |
| 2026-05-05 14:54 | 36.57314 | -89.72484 | 27871 ft | 397 kts | 281° |
| 2026-05-05 14:54 | 36.57949 | -89.75839 | 27872 ft | 398 kts | 281° |
| 2026-05-05 14:55 | 36.58586 | -89.79192 | 27875 ft | 399 kts | 281° |
| 2026-05-05 14:55 | 36.59220 | -89.82561 | 27878 ft | 399 kts | 281° |
| 2026-05-05 14:55 | 36.59858 | -89.85926 | 27880 ft | 400 kts | 281° |
| 2026-05-05 14:55 | 36.60491 | -89.89303 | 27880 ft | 400 kts | 281° |
| 2026-05-05 14:56 | 36.61129 | -89.92684 | 27881 ft | 400 kts | 281° |
| 2026-05-05 14:56 | 36.61754 | -89.96016 | 27879 ft | 401 kts | 282° |
| 2026-05-05 14:56 | 36.62387 | -89.99397 | 27881 ft | 401 kts | 281° |
| 2026-05-05 14:56 | 36.63021 | -90.02780 | 27879 ft | 402 kts | 282° |
| 2026-05-05 14:57 | 36.63652 | -90.06166 | 27883 ft | 402 kts | 282° |
| 2026-05-05 14:57 | 36.64284 | -90.09553 | 27883 ft | 402 kts | 282° |
| 2026-05-05 14:57 | 36.64915 | -90.12944 | 27880 ft | 402 kts | 282° |
| 2026-05-05 14:57 | 36.65548 | -90.16345 | 27875 ft | 402 kts | 282° |
| 2026-05-05 14:58 | 36.66176 | -90.19740 | 27852 ft | 402 kts | 282° |
| 2026-05-05 14:58 | 36.66674 | -90.22413 | 27853 ft | 402 kts | 282° |
| 2026-05-05 14:58 | 36.67301 | -90.25816 | 27849 ft | 402 kts | 282° |
| 2026-05-05 14:58 | 36.67930 | -90.29209 | 27855 ft | 402 kts | 282° |
| 2026-05-05 14:59 | 36.68553 | -90.32603 | 27853 ft | 402 kts | 282° |
| 2026-05-05 14:59 | 36.69181 | -90.36003 | 27855 ft | 402 kts | 282° |
| 2026-05-05 14:59 | 36.69801 | -90.39389 | 27852 ft | 402 kts | 282° |
| 2026-05-05 14:59 | 36.70427 | -90.42787 | 27853 ft | 402 kts | 282° |
| 2026-05-05 15:00 | 36.71046 | -90.46182 | 27856 ft | 402 kts | 282° |
| 2026-05-05 15:00 | 36.71459 | -90.48432 | 27862 ft | 402 kts | 282° |
| 2026-05-05 15:00 | 36.72290 | -90.52989 | 27865 ft | 403 kts | 282° |
| 2026-05-05 15:00 | 36.72903 | -90.56355 | 27854 ft | 404 kts | 282° |
| 2026-05-05 15:01 | 36.73524 | -90.59761 | 27859 ft | 402 kts | 282° |
| 2026-05-05 15:01 | 36.74138 | -90.63161 | 27866 ft | 402 kts | 282° |
| 2026-05-05 15:01 | 36.74754 | -90.66554 | 27865 ft | 401 kts | 282° |
| 2026-05-05 15:01 | 36.75370 | -90.69948 | 27874 ft | 400 kts | 282° |
| 2026-05-05 15:02 | 36.75978 | -90.73331 | 27873 ft | 400 kts | 282° |
| 2026-05-05 15:02 | 36.76590 | -90.76719 | 27876 ft | 399 kts | 282° |
| 2026-05-05 15:02 | 36.77196 | -90.80089 | 27877 ft | 399 kts | 282° |
| 2026-05-05 15:02 | 36.77804 | -90.83464 | 27877 ft | 399 kts | 282° |
| 2026-05-05 15:03 | 36.78408 | -90.86844 | 27879 ft | 398 kts | 282° |
| 2026-05-05 15:03 | 36.79006 | -90.90173 | 27881 ft | 398 kts | 282° |
| 2026-05-05 15:03 | 36.79608 | -90.93552 | 27882 ft | 398 kts | 282° |
| 2026-05-05 15:03 | 36.80210 | -90.96922 | 27880 ft | 398 kts | 281° |
| 2026-05-05 15:04 | 36.80811 | -91.00291 | 27877 ft | 398 kts | 282° |
| 2026-05-05 15:04 | 36.81409 | -91.03667 | 27880 ft | 397 kts | 281° |
| 2026-05-05 15:04 | 36.82009 | -91.07034 | 27876 ft | 397 kts | 281° |
| 2026-05-05 15:04 | 36.82605 | -91.10402 | 27876 ft | 397 kts | 281° |
| 2026-05-05 15:05 | 36.83796 | -91.17142 | 27869 ft | 397 kts | 281° |
| 2026-05-05 15:05 | 36.84388 | -91.20508 | 27868 ft | 397 kts | 281° |
| 2026-05-05 15:05 | 36.84982 | -91.23872 | 27864 ft | 397 kts | 281° |
| 2026-05-05 15:06 | 36.85571 | -91.27238 | 27860 ft | 397 kts | 281° |
| 2026-05-05 15:06 | 36.86162 | -91.30601 | 27860 ft | 396 kts | 281° |
| 2026-05-05 15:06 | 36.86742 | -91.33918 | 27855 ft | 396 kts | 281° |
| 2026-05-05 15:06 | 36.87328 | -91.37278 | 27854 ft | 396 kts | 281° |
| 2026-05-05 15:07 | 36.87916 | -91.40644 | 27856 ft | 396 kts | 281° |
| 2026-05-05 15:07 | 36.88500 | -91.44001 | 27852 ft | 395 kts | 281° |
| 2026-05-05 15:07 | 36.89084 | -91.47356 | 27850 ft | 395 kts | 281° |
| 2026-05-05 15:07 | 36.89665 | -91.50709 | 27850 ft | 395 kts | 281° |
| 2026-05-05 15:08 | 36.90246 | -91.54067 | 27849 ft | 394 kts | 281° |
| 2026-05-05 15:08 | 36.90824 | -91.57414 | 27849 ft | 394 kts | 281° |
| 2026-05-05 15:08 | 36.91402 | -91.60759 | 27847 ft | 394 kts | 281° |
| 2026-05-05 15:08 | 36.91978 | -91.64101 | 27844 ft | 393 kts | 281° |
| 2026-05-05 15:09 | 36.92554 | -91.67446 | 27845 ft | 393 kts | 281° |
| 2026-05-05 15:09 | 36.93124 | -91.70783 | 27847 ft | 392 kts | 281° |
| 2026-05-05 15:09 | 36.93689 | -91.74118 | 27846 ft | 392 kts | 281° |
| 2026-05-05 15:09 | 36.94268 | -91.77443 | 27849 ft | 390 kts | 281° |
| 2026-05-05 15:10 | 36.94828 | -91.80694 | 27848 ft | 384 kts | 281° |
| 2026-05-05 15:10 | 36.95382 | -91.83984 | 27848 ft | 379 kts | 281° |
| 2026-05-05 15:10 | 36.95916 | -91.87153 | 27847 ft | 376 kts | 281° |
| 2026-05-05 15:10 | 36.96459 | -91.90332 | 27841 ft | 372 kts | 281° |
| 2026-05-05 15:11 | 36.96997 | -91.93486 | 27840 ft | 370 kts | 281° |
| 2026-05-05 15:11 | 36.97526 | -91.96621 | 27839 ft | 367 kts | 281° |
| 2026-05-05 15:11 | 36.98056 | -91.99752 | 27200 ft | 372 kts | 281° |
| 2026-05-05 15:11 | 36.98589 | -92.02929 | 26631 ft | 373 kts | 281° |
| 2026-05-05 15:12 | 36.99126 | -92.06094 | 26208 ft | 370 kts | 280° |
| 2026-05-05 15:12 | 36.99654 | -92.09242 | 25780 ft | 368 kts | 280° |
| 2026-05-05 15:12 | 37.00180 | -92.12375 | 25357 ft | 366 kts | 280° |
| 2026-05-05 15:12 | 37.00694 | -92.15446 | 24964 ft | 365 kts | 280° |
| 2026-05-05 15:13 | 37.01212 | -92.18545 | 24582 ft | 363 kts | 279° |
| 2026-05-05 15:13 | 37.01734 | -92.21672 | 24201 ft | 362 kts | 279° |
| 2026-05-05 15:13 | 37.02247 | -92.24745 | 23841 ft | 360 kts | 279° |
| 2026-05-05 15:13 | 37.02745 | -92.27750 | 23191 ft | 354 kts | 279° |
| 2026-05-05 15:14 | 37.03255 | -92.30789 | 22394 ft | 353 kts | 279° |
| 2026-05-05 15:14 | 37.03749 | -92.33771 | 21464 ft | 349 kts | 279° |
| 2026-05-05 15:14 | 37.04236 | -92.36732 | 20577 ft | 346 kts | 279° |
| 2026-05-05 15:14 | 37.04720 | -92.39672 | 19736 ft | 342 kts | 279° |
| 2026-05-05 15:15 | 37.05200 | -92.42577 | 18946 ft | 339 kts | 279° |
| 2026-05-05 15:15 | 37.05678 | -92.45458 | 18217 ft | 341 kts | 279° |
| 2026-05-05 15:15 | 37.06148 | -92.48339 | 17793 ft | 333 kts | 279° |
| 2026-05-05 15:15 | 37.06611 | -92.51175 | 17425 ft | 329 kts | 279° |
| 2026-05-05 15:16 | 37.07068 | -92.53942 | 17175 ft | 324 kts | 279° |
| 2026-05-05 15:16 | 37.07527 | -92.56715 | 16725 ft | 325 kts | 279° |
| 2026-05-05 15:16 | 37.07970 | -92.59447 | 16388 ft | 324 kts | 279° |
| 2026-05-05 15:16 | 37.08421 | -92.62213 | 16038 ft | 323 kts | 279° |
| 2026-05-05 15:17 | 37.08868 | -92.64960 | 15711 ft | 322 kts | 279° |
| 2026-05-05 15:17 | 37.09316 | -92.67705 | 15398 ft | 320 kts | 279° |
| 2026-05-05 15:17 | 37.09762 | -92.70435 | 15096 ft | 319 kts | 279° |
| 2026-05-05 15:17 | 37.10568 | -92.73029 | 14779 ft | 327 kts | 300° |
| 2026-05-05 15:18 | 37.11978 | -92.75274 | 14475 ft | 323 kts | 295° |
| 2026-05-05 15:18 | 37.12438 | -92.77931 | 14326 ft | 309 kts | 266° |
| 2026-05-05 15:18 | 37.11820 | -92.80479 | 13910 ft | 310 kts | 242° |
| 2026-05-05 15:18 | 37.10559 | -92.82618 | 13639 ft | 305 kts | 233° |
| 2026-05-05 15:19 | 37.09163 | -92.84605 | 13011 ft | 305 kts | 231° |
| 2026-05-05 15:19 | 37.07727 | -92.86537 | 12655 ft | 299 kts | 230° |
| 2026-05-05 15:19 | 37.06317 | -92.88411 | 12334 ft | 293 kts | 230° |
| 2026-05-05 15:19 | 37.04932 | -92.90262 | 11945 ft | 290 kts | 230° |
| 2026-05-05 15:20 | 37.03559 | -92.92103 | 11617 ft | 287 kts | 230° |
| 2026-05-05 15:20 | 37.02204 | -92.93936 | 11245 ft | 286 kts | 230° |
| 2026-05-05 15:20 | 37.00859 | -92.95770 | 10881 ft | 286 kts | 230° |
| 2026-05-05 15:20 | 36.99590 | -92.97514 | 10606 ft | 281 kts | 230° |
| 2026-05-05 15:21 | 36.98283 | -92.99313 | 10292 ft | 277 kts | 230° |
| 2026-05-05 15:21 | 36.97001 | -93.01093 | 9955 ft | 275 kts | 230° |
| 2026-05-05 15:21 | 36.95740 | -93.02854 | 9612 ft | 273 kts | 230° |
| 2026-05-05 15:21 | 36.94480 | -93.04622 | 9254 ft | 272 kts | 230° |
| 2026-05-05 15:22 | 36.93219 | -93.06393 | 8884 ft | 272 kts | 230° |
| 2026-05-05 15:22 | 36.91969 | -93.08158 | 8522 ft | 271 kts | 230° |
| 2026-05-05 15:22 | 36.90722 | -93.09927 | 8181 ft | 271 kts | 230° |
| 2026-05-05 15:22 | 36.89479 | -93.11695 | 7841 ft | 270 kts | 230° |
| 2026-05-05 15:23 | 36.88243 | -93.13472 | 7458 ft | 271 kts | 230° |
| 2026-05-05 15:23 | 36.87013 | -93.15248 | 7095 ft | 270 kts | 230° |
| 2026-05-05 15:23 | 36.85786 | -93.17030 | 6759 ft | 270 kts | 230° |
| 2026-05-05 15:23 | 36.84565 | -93.18808 | 6518 ft | 266 kts | 230° |
| 2026-05-05 15:24 | 36.83553 | -93.20661 | 6463 ft | 255 kts | 252° |
| 2026-05-05 15:24 | 36.83410 | -93.22108 | 6237 ft | 258 kts | 274° |
| 2026-05-05 15:24 | 36.84057 | -93.24922 | 5916 ft | 248 kts | 288° |
| 2026-05-05 15:24 | 36.84674 | -93.26928 | 5323 ft | 249 kts | 290° |
| 2026-05-05 15:25 | 36.85330 | -93.28947 | 4777 ft | 250 kts | 290° |
| 2026-05-05 15:25 | 36.85980 | -93.30921 | 4426 ft | 242 kts | 290° |
| 2026-05-05 15:25 | 36.86604 | -93.32855 | 3990 ft | 239 kts | 290° |
| 2026-05-05 15:25 | 36.87009 | -93.34132 | 3709 ft | 237 kts | 290° |
| 2026-05-05 15:26 | 36.87604 | -93.36041 | 3273 ft | 234 kts | 290° |
| 2026-05-05 15:26 | 36.88172 | -93.37930 | 2999 ft | 229 kts | 290° |
| 2026-05-05 15:26 | 36.88749 | -93.39816 | 2957 ft | 235 kts | 290° |
| 2026-05-05 15:26 | 36.89331 | -93.41742 | 2964 ft | 238 kts | 290° |
| 2026-05-05 15:27 | 36.89913 | -93.43677 | 2968 ft | 238 kts | 290° |
| 2026-05-05 15:27 | 36.90494 | -93.45611 | 2966 ft | 237 kts | 290° |
| 2026-05-05 15:27 | 36.91082 | -93.47534 | 2968 ft | 236 kts | 294° |
| 2026-05-05 15:27 | 36.92198 | -93.48968 | 2951 ft | 232 kts | 338° |
| 2026-05-05 15:28 | 36.93728 | -93.49548 | 2956 ft | 229 kts | 349° |
| 2026-05-05 15:28 | 36.95255 | -93.50005 | 2956 ft | 218 kts | 350° |
| 2026-05-05 15:28 | 36.96671 | -93.50407 | 2968 ft | 198 kts | 350° |
| 2026-05-05 15:28 | 36.97997 | -93.50591 | 2975 ft | 187 kts | 7° |
| 2026-05-05 15:29 | 36.99277 | -93.50537 | 2981 ft | 186 kts | 5° |
| 2026-05-05 15:29 | 37.00568 | -93.50319 | 2978 ft | 184 kts | 21° |
| 2026-05-05 15:29 | 37.01747 | -93.49761 | 2983 ft | 183 kts | 25° |
| 2026-05-05 15:29 | 37.02920 | -93.49186 | 2974 ft | 179 kts | 26° |
| 2026-05-05 15:30 | 37.04060 | -93.48617 | 2973 ft | 174 kts | 25° |
| 2026-05-05 15:30 | 37.05179 | -93.48062 | 2973 ft | 172 kts | 26° |
| 2026-05-05 15:30 | 37.06281 | -93.47515 | 2971 ft | 170 kts | 26° |
| 2026-05-05 15:30 | 37.07373 | -93.46968 | 2977 ft | 169 kts | 25° |
| 2026-05-05 15:31 | 37.08463 | -93.46428 | 2980 ft | 167 kts | 25° |
| 2026-05-05 15:31 | 37.09548 | -93.45887 | 2980 ft | 167 kts | 26° |
| 2026-05-05 15:31 | 37.10622 | -93.45354 | 2984 ft | 166 kts | 26° |
| 2026-05-05 15:31 | 37.11689 | -93.44823 | 2986 ft | 165 kts | 26° |
| 2026-05-05 15:32 | 37.12757 | -93.44293 | 2982 ft | 165 kts | 25° |
| 2026-05-05 15:32 | 37.13818 | -93.43775 | 2985 ft | 166 kts | 26° |
| 2026-05-05 15:32 | 37.14891 | -93.43241 | 2989 ft | 166 kts | 25° |
| 2026-05-05 15:32 | 37.15936 | -93.42722 | 2983 ft | 155 kts | 27° |
| 2026-05-05 15:33 | 37.16912 | -93.42248 | 2914 ft | 148 kts | 25° |
| 2026-05-05 15:33 | 37.17838 | -93.41788 | 2696 ft | 134 kts | 26° |
| 2026-05-05 15:33 | 37.18673 | -93.41346 | 2408 ft | 129 kts | 27° |
| 2026-05-05 15:33 | 37.19492 | -93.40902 | 2155 ft | 130 kts | 25° |
| 2026-05-05 15:34 | 37.20252 | -93.40534 | 1977 ft | 110 kts | 24° |
| 2026-05-05 15:34 | 37.20934 | -93.40189 | 1872 ft | 100 kts | 25° |
| 2026-05-05 15:34 | 37.21602 | -93.39852 | 1693 ft | 107 kts | 21° |
| 2026-05-05 15:34 | 37.22291 | -93.39551 | 1539 ft | 102 kts | 24° |
| 2026-05-05 15:35 | 37.22951 | -93.39225 | 1436 ft | 101 kts | 25° |
| 2026-05-05 15:35 | 37.23594 | -93.38910 | 1293 ft | 97 kts | 25° |
| 2026-05-05 15:35 | 37.24135 | -93.38632 | 1274 ft | 72 kts | 25° |
| 2026-05-05 15:35 | 37.24507 | -93.38454 | 1267 ft | 46 kts | 24° |
| 2026-05-05 15:36 | 37.24794 | -93.38308 | 1269 ft | 47 kts | 22° |
| 2026-05-05 15:36 | 37.24957 | -93.38158 | 1271 ft | 21 kts | 108° |
| 2026-05-05 15:36 | 37.24941 | -93.38061 | 1270 ft | 9 kts | 108° |
| 2026-05-05 15:36 | 37.24916 | -93.37986 | 1269 ft | 8 kts | 111° |
| 2026-05-05 15:37 | 37.24887 | -93.37958 | 1270 ft | 3 kts | 210° |
| 2026-05-05 15:37 | 37.24882 | -93.37961 | 1270 ft | 0 kts | 204° |
| 2026-05-05 15:37 | 37.24881 | -93.37962 | 1270 ft | 0 kts | 204° |